createdAt,value
2023-02-05T00:00:59.387Z,97958.67
2023-02-05T00:03:29.405Z,97976.91
2023-02-05T00:05:59.518Z,97980.66
2023-02-05T00:08:31.119Z,97978.98
2023-02-05T00:11:00.318Z,97968.30
2023-02-05T00:13:29.556Z,97970.45
2023-02-05T00:15:59.470Z,97975.04
2023-02-05T00:18:30.315Z,97964.33
2023-02-05T00:21:02.687Z,97962.69
2023-02-05T00:23:31.889Z,97953.34
2023-02-05T00:26:00.986Z,97962.09
2023-02-05T00:28:30.397Z,97964.55
2023-02-05T00:31:03.425Z,97957.12
2023-02-05T00:33:32.806Z,97959.27
2023-02-05T00:36:02.034Z,97967.45
2023-02-05T00:38:31.220Z,97972.63
2023-02-05T00:41:00.458Z,97978.86
2023-02-05T00:43:30.427Z,97989.18
2023-02-05T00:45:59.596Z,97993.77
2023-02-05T00:48:29.502Z,97992.95
2023-02-05T00:50:59.505Z,97998.36
2023-02-05T00:53:29.899Z,97984.96
2023-02-05T00:55:59.593Z,97986.87
2023-02-05T00:58:29.585Z,97988.73
2023-02-05T01:00:59.724Z,97990.88
2023-02-05T01:03:29.564Z,97993.86
2023-02-05T01:06:00.252Z,97997.13
2023-02-05T01:08:29.630Z,97998.50
2023-02-05T01:10:59.603Z,97985.05
2023-02-05T01:13:29.711Z,97992.13
2023-02-05T01:15:59.703Z,97987.50
2023-02-05T01:18:29.613Z,97993.77
2023-02-05T01:21:00.244Z,97992.09
2023-02-05T01:23:29.705Z,97992.33
2023-02-05T01:25:59.622Z,97989.83
2023-02-05T01:28:29.639Z,98001.23
2023-02-05T01:31:02.175Z,97998.23
2023-02-05T01:33:31.318Z,97987.05
2023-02-05T01:36:00.582Z,97987.55
2023-02-05T01:38:30.923Z,97980.70
2023-02-05T01:41:00.867Z,97979.88
2023-02-05T01:43:30.540Z,97982.87
2023-02-05T01:46:04.883Z,97988.00
2023-02-05T01:48:35.430Z,97982.46
2023-02-05T01:51:08.227Z,97981.86
2023-02-05T01:53:37.273Z,97979.09
2023-02-05T01:56:07.758Z,97974.41
2023-02-05T01:58:38.366Z,97981.81
2023-02-05T02:01:07.592Z,97989.17
2023-02-05T02:03:36.839Z,97994.08
2023-02-05T02:06:06.189Z,97989.98
2023-02-05T02:08:35.309Z,97986.67
2023-02-05T02:11:04.656Z,98005.16
2023-02-05T02:13:34.517Z,98015.78
2023-02-05T02:16:04.370Z,98000.53
2023-02-05T02:18:34.240Z,98001.07
2023-02-05T02:21:04.763Z,98005.42
2023-02-05T02:23:51.633Z,98025.91
2023-02-05T02:26:39.665Z,98030.77
2023-02-05T02:29:08.916Z,98030.48
2023-02-05T02:31:39.448Z,98026.58
2023-02-05T02:34:09.901Z,98034.03
2023-02-05T02:36:54.585Z,98044.72
2023-02-05T02:39:37.229Z,98044.82
2023-02-05T02:42:07.731Z,98038.34
2023-02-05T02:44:38.260Z,98034.34
2023-02-05T02:47:18.825Z,98043.39
2023-02-05T02:49:48.923Z,98042.66
2023-02-05T02:52:18.867Z,98049.80
2023-02-05T02:54:50.955Z,98053.66
2023-02-05T02:57:20.359Z,98050.98
2023-02-05T02:59:49.572Z,98052.12
2023-02-05T03:02:18.652Z,98054.86
2023-02-05T03:04:48.973Z,98060.62
2023-02-05T03:07:19.460Z,98062.81
2023-02-05T03:09:49.901Z,98077.03
2023-02-05T03:12:19.253Z,98082.81
2023-02-05T03:14:48.351Z,98088.08
2023-02-05T03:17:18.884Z,98108.91
2023-02-05T03:19:49.376Z,98110.05
2023-02-05T03:22:18.428Z,98111.55
2023-02-05T03:24:47.485Z,98113.00
2023-02-05T03:27:16.616Z,98112.00
2023-02-05T03:29:45.894Z,98115.64
2023-02-05T03:32:16.317Z,98122.05
2023-02-05T03:35:03.108Z,98125.14
2023-02-05T03:37:51.945Z,98124.92
2023-02-05T03:40:31.547Z,98121.22
2023-02-05T03:43:05.696Z,98133.31
2023-02-05T03:45:40.863Z,98139.41
2023-02-05T03:48:11.395Z,98141.67
2023-02-05T03:50:41.967Z,98141.72
2023-02-05T03:53:21.548Z,98140.63
2023-02-05T03:55:56.027Z,98144.72
2023-02-05T03:58:28.864Z,98150.49
2023-02-05T04:00:58.285Z,98156.23
2023-02-05T04:03:28.231Z,98154.59
2023-02-05T04:05:58.321Z,98157.05
2023-02-05T04:08:28.308Z,98150.50
2023-02-05T04:10:58.261Z,98157.59
2023-02-05T04:13:28.254Z,98163.34
2023-02-05T04:15:58.292Z,98160.01
2023-02-05T04:18:30.788Z,98162.47
2023-02-05T04:21:00.983Z,98154.83
2023-02-05T04:23:30.254Z,98146.59
2023-02-05T04:26:00.252Z,98152.59
2023-02-05T04:28:30.194Z,98145.46
2023-02-05T04:31:00.248Z,98141.09
2023-02-05T04:33:30.323Z,98143.00
2023-02-05T04:36:02.152Z,98145.46
2023-02-05T04:38:31.225Z,98139.45
2023-02-05T04:41:00.386Z,98145.45
2023-02-05T04:43:30.570Z,98146.23
2023-02-05T04:46:00.442Z,98145.14
2023-02-05T04:48:30.366Z,98149.23
2023-02-05T04:51:00.270Z,98149.78
2023-02-05T04:53:30.287Z,98156.61
2023-02-05T04:56:07.650Z,98160.94
2023-02-05T04:58:36.728Z,98158.20
2023-02-05T05:01:05.858Z,98159.02
2023-02-05T05:03:35.080Z,98158.70
2023-02-05T05:06:07.576Z,98164.17
2023-02-05T05:08:36.695Z,98168.52
2023-02-05T05:11:11.705Z,98180.22
2023-02-05T05:13:43.204Z,98181.55
2023-02-05T05:16:13.039Z,98178.58
2023-02-05T05:18:42.368Z,98171.98
2023-02-05T05:21:11.475Z,98179.05
2023-02-05T05:23:40.572Z,98179.31
2023-02-05T05:26:10.074Z,98179.55
2023-02-05T05:28:39.139Z,98175.45
2023-02-05T05:31:11.508Z,98163.17
2023-02-05T05:33:40.679Z,98159.88
2023-02-05T05:36:09.920Z,98156.56
2023-02-05T05:38:38.970Z,98157.89
2023-02-05T05:41:27.905Z,98165.77
2023-02-05T05:43:57.741Z,98167.62
2023-02-05T05:46:27.020Z,98173.39
2023-02-05T05:48:57.018Z,98179.86
2023-02-05T05:51:26.270Z,98176.62
2023-02-05T05:53:55.469Z,98179.03
2023-02-05T05:56:24.694Z,98182.59
2023-02-05T05:58:53.799Z,98175.44
2023-02-05T06:01:23.780Z,98180.08
2023-02-05T06:03:52.917Z,98172.62
2023-02-05T06:06:21.998Z,98179.44
2023-02-05T06:08:51.098Z,98169.06
2023-02-05T06:11:22.730Z,98167.66
2023-02-05T06:13:51.885Z,98169.84
2023-02-05T06:16:20.980Z,98165.16
2023-02-05T06:18:50.349Z,98163.19
2023-02-05T06:21:19.741Z,98172.97
2023-02-05T06:23:48.787Z,98173.23
2023-02-05T06:26:17.893Z,98178.38
2023-02-05T06:28:46.971Z,98174.74
2023-02-05T06:31:16.115Z,98166.56
2023-02-05T06:33:45.767Z,98163.55
2023-02-05T06:36:14.918Z,98169.23
2023-02-05T06:38:44.195Z,98173.28
2023-02-05T06:41:15.566Z,98168.91
2023-02-05T06:43:44.635Z,98173.77
2023-02-05T06:46:13.718Z,98166.13
2023-02-05T06:48:43.020Z,98158.98
2023-02-05T06:51:12.060Z,98162.22
2023-02-05T06:53:41.129Z,98162.77
2023-02-05T06:56:10.283Z,98159.98
2023-02-05T06:58:39.360Z,98155.84
2023-02-05T07:01:08.437Z,98148.75
2023-02-05T07:03:37.576Z,98152.25
2023-02-05T07:06:06.874Z,98152.73
2023-02-05T07:08:36.356Z,98156.23
2023-02-05T07:11:05.902Z,98153.00
2023-02-05T07:13:34.947Z,98143.92
2023-02-05T07:16:07.253Z,98141.50
2023-02-05T07:18:36.419Z,98149.91
2023-02-05T07:21:09.106Z,98150.12
2023-02-05T07:23:38.156Z,98136.66
2023-02-05T07:26:10.325Z,98153.84
2023-02-05T07:28:39.375Z,98149.70
2023-02-05T07:31:09.063Z,98150.50
2023-02-05T07:33:41.091Z,98156.52
2023-02-05T07:36:10.572Z,98152.92
2023-02-05T07:38:39.661Z,98148.83
2023-02-05T07:41:09.081Z,98137.64
2023-02-05T07:43:38.367Z,98139.78
2023-02-05T07:46:11.256Z,98132.97
2023-02-05T07:48:40.462Z,98133.68
2023-02-05T07:51:09.556Z,98135.36
2023-02-05T07:53:38.668Z,98140.21
2023-02-05T07:56:08.014Z,98143.48
2023-02-05T07:58:37.056Z,98143.97
2023-02-05T08:01:08.609Z,98141.73
2023-02-05T08:03:37.813Z,98140.05
2023-02-05T08:06:07.221Z,98134.32
2023-02-05T08:08:36.379Z,98136.77
2023-02-05T08:11:06.066Z,98127.17
2023-02-05T08:13:35.144Z,98124.95
2023-02-05T08:16:05.898Z,98123.55
2023-02-05T08:18:35.041Z,98123.52
2023-02-05T08:21:04.127Z,98129.20
2023-02-05T08:23:34.759Z,98133.51
2023-02-05T08:26:06.081Z,98133.97
2023-02-05T08:28:35.262Z,98139.13
2023-02-05T08:31:06.902Z,98136.95
2023-02-05T08:33:35.967Z,98135.27
2023-02-05T08:36:05.203Z,98127.36
2023-02-05T08:38:34.296Z,98128.41
2023-02-05T08:41:08.312Z,98126.48
2023-02-05T08:43:37.353Z,98128.83
2023-02-05T08:46:06.564Z,98130.45
2023-02-05T08:48:35.686Z,98130.45
2023-02-05T08:51:04.764Z,98135.02
2023-02-05T08:53:34.296Z,98142.34
2023-02-05T08:56:03.871Z,98139.88
2023-02-05T08:58:32.968Z,98144.18
2023-02-05T09:01:03.396Z,98145.80
2023-02-05T09:03:32.550Z,98142.48
2023-02-05T09:06:01.850Z,98152.02
2023-02-05T09:08:31.929Z,98151.13
2023-02-05T09:11:01.867Z,98145.84
2023-02-05T09:13:31.855Z,98144.48
2023-02-05T09:16:01.986Z,98144.74
2023-02-05T09:18:31.910Z,98155.32
2023-02-05T09:21:00.998Z,98148.99
2023-02-05T09:23:31.085Z,98150.08
2023-02-05T09:26:01.102Z,98156.05
2023-02-05T09:28:30.969Z,98156.28
2023-02-05T09:31:01.207Z,98162.55
2023-02-05T09:33:31.005Z,98155.94
2023-02-05T09:36:00.912Z,98160.56
2023-02-05T09:38:31.153Z,98152.08
2023-02-05T09:41:07.830Z,98147.36
2023-02-05T09:43:44.205Z,98141.92
2023-02-05T09:46:14.840Z,98135.63
2023-02-05T09:48:51.418Z,98138.59
2023-02-05T09:51:22.087Z,98137.17
2023-02-05T09:53:52.770Z,98143.16
2023-02-05T09:56:21.829Z,98157.81
2023-02-05T09:58:51.375Z,98157.53
2023-02-05T10:01:21.895Z,98156.93
2023-02-05T10:03:58.076Z,98153.92
2023-02-05T10:06:28.608Z,98150.60
2023-02-05T10:09:08.686Z,98147.59
2023-02-05T10:11:48.244Z,98148.58
2023-02-05T10:14:30.954Z,98140.95
2023-02-05T10:17:04.468Z,98152.09
2023-02-05T10:19:51.512Z,98142.72
2023-02-05T10:22:30.742Z,98148.23
2023-02-05T10:25:07.862Z,98140.83
2023-02-05T10:27:56.381Z,98136.45
2023-02-05T10:30:35.748Z,98134.50
2023-02-05T10:33:06.285Z,98129.27
2023-02-05T10:35:51.614Z,98139.02
2023-02-05T10:38:27.482Z,98130.58
2023-02-05T10:40:58.858Z,98131.94
2023-02-05T10:43:32.216Z,98135.64
2023-02-05T10:46:02.267Z,98125.83
2023-02-05T10:48:49.653Z,98118.42
2023-02-05T10:51:19.370Z,98121.97
2023-02-05T10:53:48.405Z,98130.98
2023-02-05T10:56:20.330Z,98128.20
2023-02-05T10:58:56.915Z,98129.56
2023-02-05T11:01:26.860Z,98133.33
2023-02-05T11:03:57.087Z,98132.72
2023-02-05T11:06:26.897Z,98135.98
2023-02-05T11:08:55.977Z,98132.44
2023-02-05T11:11:26.518Z,98131.62
2023-02-05T11:13:59.681Z,98136.45
2023-02-05T11:16:45.600Z,98143.80
2023-02-05T11:19:24.502Z,98145.62
2023-02-05T11:22:00.459Z,98160.88
2023-02-05T11:24:34.052Z,98164.35
2023-02-05T11:27:13.393Z,98179.03
2023-02-05T11:29:42.493Z,98190.73
2023-02-05T11:32:22.146Z,98193.70
2023-02-05T11:34:51.323Z,98196.64
2023-02-05T11:37:20.418Z,98205.34
2023-02-05T11:39:49.526Z,98202.33
2023-02-05T11:42:21.231Z,98202.02
2023-02-05T11:44:51.620Z,98199.55
2023-02-05T11:47:41.489Z,98198.69
2023-02-05T11:50:12.026Z,98196.58
2023-02-05T11:52:41.297Z,98189.23
2023-02-05T11:55:11.801Z,98195.28
2023-02-05T11:57:42.248Z,98192.63
2023-02-05T12:00:13.537Z,98205.30
2023-02-05T12:02:42.723Z,98200.30
2023-02-05T12:05:13.285Z,98199.11
2023-02-05T12:07:46.259Z,98196.08
2023-02-05T12:10:19.098Z,98200.67
2023-02-05T12:12:52.403Z,98208.23
2023-02-05T12:15:23.033Z,98204.34
2023-02-05T12:17:59.558Z,98207.00
2023-02-05T12:20:33.567Z,98193.88
2023-02-05T12:23:16.173Z,98190.26
2023-02-05T12:25:46.706Z,98185.55
2023-02-05T12:28:23.225Z,98178.15
2023-02-05T12:30:53.664Z,98183.80
2023-02-05T12:33:40.714Z,98187.52
2023-02-05T12:36:29.824Z,98196.97
2023-02-05T12:39:12.678Z,98196.05
2023-02-05T12:41:58.157Z,98194.89
2023-02-05T12:44:45.160Z,98196.70
2023-02-05T12:47:18.508Z,98200.07
2023-02-05T12:49:49.007Z,98203.50
2023-02-05T12:52:19.436Z,98201.38
2023-02-05T12:55:06.545Z,98193.06
2023-02-05T12:57:39.864Z,98202.25
2023-02-05T13:00:09.855Z,98208.91
2023-02-05T13:02:49.485Z,98220.46
2023-02-05T13:05:25.336Z,98225.73
2023-02-05T13:07:59.191Z,98233.48
2023-02-05T13:10:35.511Z,98226.44
2023-02-05T13:13:04.990Z,98226.25
2023-02-05T13:15:35.891Z,98241.14
2023-02-05T13:18:09.695Z,98234.18
2023-02-05T13:20:57.818Z,98236.97
2023-02-05T13:23:44.670Z,98237.88
2023-02-05T13:26:27.673Z,98226.22
2023-02-05T13:28:58.163Z,98219.20
2023-02-05T13:31:28.641Z,98216.59
2023-02-05T13:33:58.424Z,98219.10
2023-02-05T13:36:29.043Z,98227.62
2023-02-05T13:39:12.004Z,98227.16
2023-02-05T13:41:43.841Z,98219.89
2023-02-05T13:44:20.524Z,98210.65
2023-02-05T13:47:07.497Z,98206.86
2023-02-05T13:49:46.839Z,98210.22
2023-02-05T13:52:23.297Z,98208.11
2023-02-05T13:54:53.728Z,98217.99
2023-02-05T13:57:33.369Z,98219.13
2023-02-05T14:00:02.577Z,98224.12
2023-02-05T14:02:36.966Z,98205.84
2023-02-05T14:05:06.315Z,98199.36
2023-02-05T14:07:36.843Z,98196.39
2023-02-05T14:10:06.769Z,98197.01
2023-02-05T14:12:36.317Z,98201.17
2023-02-05T14:15:19.131Z,98203.70
2023-02-05T14:17:49.584Z,98201.83
2023-02-05T14:20:26.253Z,98203.78
2023-02-05T14:22:55.594Z,98202.44
2023-02-05T14:25:42.480Z,98209.07
2023-02-05T14:28:19.871Z,98211.84
2023-02-05T14:30:49.958Z,98212.14
2023-02-05T14:33:36.895Z,98215.50
2023-02-05T14:36:23.610Z,98223.73
2023-02-05T14:39:02.436Z,98223.22
2023-02-05T14:41:46.738Z,98232.55
2023-02-05T14:44:19.666Z,98233.71
2023-02-05T14:47:02.612Z,98228.55
2023-02-05T14:49:47.777Z,98229.16
2023-02-05T14:52:27.091Z,98234.66
2023-02-05T14:54:58.426Z,98231.67
2023-02-05T14:57:31.585Z,98243.23
2023-02-05T15:00:01.960Z,98245.45
2023-02-05T15:02:49.546Z,98254.23
2023-02-05T15:05:32.175Z,98264.97
2023-02-05T15:08:03.528Z,98268.87
2023-02-05T15:10:33.606Z,98260.69
2023-02-05T15:13:07.399Z,98256.03
2023-02-05T15:15:37.067Z,98262.30
2023-02-05T15:18:24.240Z,98261.75
2023-02-05T15:20:53.390Z,98269.38
2023-02-05T15:23:24.224Z,98271.00
2023-02-05T15:25:54.672Z,98275.38
2023-02-05T15:28:31.097Z,98276.13
2023-02-05T15:31:05.221Z,98275.28
2023-02-05T15:33:50.714Z,98278.26
2023-02-05T15:36:21.581Z,98285.37
2023-02-05T15:38:51.471Z,98292.22
2023-02-05T15:41:20.531Z,98287.26
2023-02-05T15:44:02.070Z,98288.32
2023-02-05T15:46:33.017Z,98285.55
2023-02-05T15:49:03.075Z,98289.62
2023-02-05T15:51:33.760Z,98294.23
2023-02-05T15:54:03.790Z,98295.61
2023-02-05T15:56:37.129Z,98289.55
2023-02-05T15:59:07.194Z,98295.84
2023-02-05T16:01:37.666Z,98294.17
2023-02-05T16:04:23.311Z,98290.89
2023-02-05T16:06:52.443Z,98293.05
2023-02-05T16:09:22.290Z,98298.20
2023-02-05T16:11:51.431Z,98300.67
2023-02-05T16:14:21.303Z,98308.30
2023-02-05T16:17:07.023Z,98304.70
2023-02-05T16:19:40.594Z,98301.69
2023-02-05T16:22:22.996Z,98288.25
2023-02-05T16:24:54.528Z,98283.05
2023-02-05T16:27:25.010Z,98280.56
2023-02-05T16:29:54.947Z,98275.02
2023-02-05T16:32:27.545Z,98279.67
2023-02-05T16:34:56.616Z,98279.39
2023-02-05T16:37:26.123Z,98277.13
2023-02-05T16:39:55.533Z,98281.50
2023-02-05T16:42:29.074Z,98278.73
2023-02-05T16:44:59.714Z,98275.42
2023-02-05T16:47:29.724Z,98280.30
2023-02-05T16:49:59.596Z,98279.98
2023-02-05T16:52:35.385Z,98283.27
2023-02-05T16:55:11.937Z,98291.71
2023-02-05T16:57:41.019Z,98293.63
2023-02-05T17:00:23.173Z,98293.04
2023-02-05T17:02:53.654Z,98291.91
2023-02-05T17:05:32.408Z,98294.88
2023-02-05T17:08:03.770Z,98294.88
2023-02-05T17:10:33.512Z,98294.06
2023-02-05T17:13:04.839Z,98292.96
2023-02-05T17:15:34.870Z,98288.55
2023-02-05T17:18:08.557Z,98285.23
2023-02-05T17:20:37.859Z,98283.01
2023-02-05T17:23:09.902Z,98283.55
2023-02-05T17:25:40.066Z,98273.98
2023-02-05T17:28:09.631Z,98279.17
2023-02-05T17:30:38.953Z,98278.05
2023-02-05T17:33:08.489Z,98268.75
2023-02-05T17:35:47.903Z,98273.91
2023-02-05T17:38:17.076Z,98277.42
2023-02-05T17:40:46.127Z,98276.87
2023-02-05T17:43:15.173Z,98271.41
2023-02-05T17:45:45.062Z,98270.00
2023-02-05T17:48:14.254Z,98264.77
2023-02-05T17:50:43.308Z,98262.58
2023-02-05T17:53:13.719Z,98265.55
2023-02-05T17:55:42.948Z,98260.63
2023-02-05T17:58:12.180Z,98260.35
2023-02-05T18:00:41.307Z,98258.44
2023-02-05T18:03:10.485Z,98257.03
2023-02-05T18:05:39.618Z,98244.73
2023-02-05T18:08:08.848Z,98239.81
2023-02-05T18:10:38.209Z,98235.44
2023-02-05T18:13:07.593Z,98230.21
2023-02-05T18:15:37.768Z,98224.16
2023-02-05T18:18:06.870Z,98215.14
2023-02-05T18:20:41.289Z,98220.84
2023-02-05T18:23:12.398Z,98206.63
2023-02-05T18:25:40.924Z,98203.90
2023-02-05T18:28:10.247Z,98199.22
2023-02-05T18:30:40.593Z,98196.20
2023-02-05T18:33:09.714Z,98190.98
2023-02-05T18:35:38.963Z,98186.61
2023-02-05T18:38:08.021Z,98177.28
2023-02-05T18:40:37.237Z,98179.47
2023-02-05T18:43:06.516Z,98171.81
2023-02-05T18:45:35.594Z,98173.45
2023-02-05T18:48:04.649Z,98164.41
2023-02-05T18:50:34.098Z,98158.66
2023-02-05T18:53:03.502Z,98157.84
2023-02-05T18:55:34.891Z,98146.88
2023-02-05T18:58:04.557Z,98148.52
2023-02-05T19:00:33.978Z,98149.61
2023-02-05T19:03:03.521Z,98148.48
2023-02-05T19:05:33.900Z,98147.63
2023-02-05T19:08:05.109Z,98139.97
2023-02-05T19:10:36.851Z,98134.23
2023-02-05T19:13:06.321Z,98126.31
2023-02-05T19:15:36.301Z,98124.13
2023-02-05T19:18:05.471Z,98121.40
2023-02-05T19:20:35.333Z,98112.66
2023-02-05T19:23:04.552Z,98114.02
2023-02-05T19:25:33.609Z,98104.19
2023-02-05T19:28:03.729Z,98106.03
2023-02-05T19:30:36.041Z,98097.28
2023-02-05T19:33:05.355Z,98096.73
2023-02-05T19:35:34.486Z,98095.61
2023-02-05T19:38:04.103Z,98090.70
2023-02-05T19:40:34.441Z,98078.95
2023-02-05T19:43:04.156Z,98074.85
2023-02-05T19:45:35.555Z,98071.54
2023-02-05T19:48:06.038Z,98071.30
2023-02-05T19:50:35.782Z,98067.44
2023-02-05T19:53:05.000Z,98066.08
2023-02-05T19:55:35.164Z,98071.84
2023-02-05T19:58:04.754Z,98067.17
2023-02-05T20:00:34.470Z,98061.16
2023-02-05T20:03:06.722Z,98061.40
2023-02-05T20:05:37.404Z,98063.08
2023-02-05T20:08:06.833Z,98061.98
2023-02-05T20:10:36.152Z,98065.26
2023-02-05T20:13:05.477Z,98066.63
2023-02-05T20:15:36.081Z,98061.44
2023-02-05T20:18:05.130Z,98057.34
2023-02-05T20:20:34.306Z,98047.27
2023-02-05T20:23:04.256Z,98055.16
2023-02-05T20:25:35.634Z,98055.42
2023-02-05T20:28:04.879Z,98052.15
2023-02-05T20:30:51.839Z,98046.38
2023-02-05T20:33:21.013Z,98039.28
2023-02-05T20:35:52.403Z,98040.64
2023-02-05T20:38:21.486Z,98039.83
2023-02-05T20:40:50.615Z,98034.36
2023-02-05T20:43:19.944Z,98030.84
2023-02-05T20:45:49.259Z,98029.72
2023-02-05T20:48:18.868Z,98026.20
2023-02-05T20:50:47.929Z,98023.17
2023-02-05T20:53:17.024Z,98029.48
2023-02-05T20:55:48.474Z,98021.80
2023-02-05T20:58:18.542Z,98022.11
2023-02-05T21:00:47.737Z,98025.12
2023-02-05T21:03:16.958Z,98012.28
2023-02-05T21:05:46.006Z,98013.13
2023-02-05T21:08:15.870Z,98011.77
2023-02-05T21:13:41.845Z,98009.62
2023-02-05T21:16:10.931Z,98011.29
2023-02-05T21:18:41.064Z,98014.02
2023-02-05T21:21:10.594Z,98004.19
2023-02-05T21:23:39.648Z,98006.13
2023-02-05T21:26:08.988Z,97999.03
2023-02-05T21:28:40.692Z,97996.03
2023-02-05T21:31:09.832Z,97994.66
2023-02-05T21:33:39.005Z,97989.20
2023-02-05T21:36:08.962Z,97983.73
2023-02-05T21:38:38.443Z,97984.55
2023-02-05T21:41:11.214Z,97974.21
2023-02-05T21:43:41.954Z,97967.38
2023-02-05T21:46:11.963Z,97978.06
2023-02-05T21:48:41.216Z,97965.77
2023-02-05T21:51:11.506Z,97969.90
2023-02-05T21:53:40.750Z,97967.17
2023-02-05T21:56:10.718Z,97962.25
2023-02-05T21:58:40.095Z,97962.55
2023-02-05T22:01:18.743Z,97956.81
2023-02-05T22:03:51.425Z,97954.12
2023-02-05T22:06:20.790Z,97949.75
2023-02-05T22:08:52.852Z,97947.05
2023-02-05T22:11:22.207Z,97946.50
2023-02-05T22:13:52.481Z,97939.42
2023-02-05T22:16:22.520Z,97934.78
2023-02-05T22:18:51.756Z,97929.86
2023-02-05T22:21:21.619Z,97921.97
2023-02-05T22:26:58.437Z,97912.98
2023-02-05T22:29:27.803Z,97914.06
2023-02-05T22:31:56.993Z,97913.82
2023-02-05T22:34:27.140Z,97914.09
2023-02-05T22:36:56.226Z,97907.02
2023-02-05T22:39:25.299Z,97908.11
2023-02-05T22:41:54.492Z,97901.85
2023-02-05T22:44:23.641Z,97902.12
2023-02-05T22:46:52.796Z,97894.50
2023-02-05T22:49:21.952Z,97883.87
2023-02-05T22:51:52.436Z,97886.33
2023-02-05T22:54:21.583Z,97884.44
2023-02-05T22:56:50.764Z,97891.02
2023-02-05T22:59:19.844Z,97894.02
2023-02-05T23:01:48.941Z,97886.38
2023-02-05T23:04:18.246Z,97876.56
2023-02-05T23:06:48.598Z,97877.65
2023-02-05T23:09:18.579Z,97876.55
2023-02-05T23:11:47.699Z,97877.67
2023-02-05T23:14:17.097Z,97884.53
2023-02-05T23:16:46.569Z,97880.70
2023-02-05T23:19:17.180Z,97881.55
2023-02-05T23:21:46.235Z,97876.62
2023-02-05T23:24:15.291Z,97877.44
2023-02-05T23:26:45.205Z,97867.36
2023-02-05T23:29:14.490Z,97861.64
2023-02-05T23:31:43.656Z,97855.62
2023-02-05T23:34:12.858Z,97844.69
2023-02-05T23:36:41.920Z,97838.16
2023-02-05T23:39:11.001Z,97839.79
2023-02-05T23:41:40.615Z,97846.38
2023-02-05T23:44:11.590Z,97842.83
2023-02-05T23:46:40.744Z,97846.38
2023-02-05T23:49:11.256Z,97849.92
2023-02-05T23:51:40.442Z,97854.84
2023-02-05T23:54:09.749Z,97848.02
2023-02-05T23:56:38.889Z,97844.44
2023-02-05T23:59:08.076Z,97845.01
